sensor_id;sensor_type;location;lat;lon;timestamp;pressure;altitude;pressure_sealevel;temperature;humidity
55546;BME280;44768;50.298;127.520;2022-07-01T00:01:05;99452.41;;;40.69;25.84
55546;BME280;44768;50.298;127.520;2022-07-01T00:06:07;99457.13;;;39.98;27.07
55546;BME280;44768;50.298;127.520;2022-07-01T00:11:09;99460.50;;;39.36;27.61
55546;BME280;44768;50.298;127.520;2022-07-01T00:16:11;99454.00;;;39.14;28.47
55546;BME280;44768;50.298;127.520;2022-07-01T00:21:15;99452.63;;;38.67;28.63
55546;BME280;44768;50.298;127.520;2022-07-01T00:26:17;99458.78;;;38.37;28.83
55546;BME280;44768;50.298;127.520;2022-07-01T00:31:18;99443.81;;;38.27;29.05
55546;BME280;44768;50.298;127.520;2022-07-01T00:36:19;99446.84;;;37.91;29.91
55546;BME280;44768;50.298;127.520;2022-07-01T00:41:22;99439.47;;;37.81;29.66
55546;BME280;44768;50.298;127.520;2022-07-01T00:46:25;99429.75;;;37.53;30.14
55546;BME280;44768;50.298;127.520;2022-07-01T00:51:28;99449.78;;;37.26;31.05
55546;BME280;44768;50.298;127.520;2022-07-01T00:56:29;99442.53;;;37.09;31.21
55546;BME280;44768;50.298;127.520;2022-07-01T01:01:32;99436.47;;;37.10;31.46
55546;BME280;44768;50.298;127.520;2022-07-01T01:06:34;99445.19;;;37.00;30.89
55546;BME280;44768;50.298;127.520;2022-07-01T01:11:36;99444.38;;;36.47;32.66
55546;BME280;44768;50.298;127.520;2022-07-01T01:16:38;99443.84;;;35.96;32.21
55546;BME280;44768;50.298;127.520;2022-07-01T01:21:40;99432.94;;;35.35;33.21
55546;BME280;44768;50.298;127.520;2022-07-01T01:26:42;99442.25;;;35.05;33.88
55546;BME280;44768;50.298;127.520;2022-07-01T01:31:44;99422.38;;;34.69;34.63
55546;BME280;44768;50.298;127.520;2022-07-01T01:36:45;99432.56;;;34.56;34.96
55546;BME280;44768;50.298;127.520;2022-07-01T01:41:47;99418.47;;;34.32;35.13
55546;BME280;44768;50.298;127.520;2022-07-01T01:46:49;99432.16;;;34.27;34.97
55546;BME280;44768;50.298;127.520;2022-07-01T01:51:51;99429.94;;;34.14;35.35
55546;BME280;44768;50.298;127.520;2022-07-01T01:56:52;99422.97;;;33.96;35.50
55546;BME280;44768;50.298;127.520;2022-07-01T02:01:55;99437.97;;;33.75;35.28
55546;BME280;44768;50.298;127.520;2022-07-01T02:06:57;99436.97;;;33.54;35.72
55546;BME280;44768;50.298;127.520;2022-07-01T02:11:59;99433.06;;;33.45;35.40
55546;BME280;44768;50.298;127.520;2022-07-01T02:17:01;99426.81;;;33.26;35.73
55546;BME280;44768;50.298;127.520;2022-07-01T02:22:03;99432.47;;;33.19;36.21
55546;BME280;44768;50.298;127.520;2022-07-01T02:27:05;99434.81;;;33.28;35.75
55546;BME280;44768;50.298;127.520;2022-07-01T02:32:07;99394.41;;;32.91;36.44
55546;BME280;44768;50.298;127.520;2022-07-01T02:37:09;99419.72;;;33.18;35.11
55546;BME280;44768;50.298;127.520;2022-07-01T02:42:11;99421.81;;;33.07;35.15
55546;BME280;44768;50.298;127.520;2022-07-01T02:47:31;99404.63;;;33.09;34.86
55546;BME280;44768;50.298;127.520;2022-07-01T02:52:34;99402.19;;;33.14;35.45
55546;BME280;44768;50.298;127.520;2022-07-01T02:57:36;99394.63;;;33.11;34.79
55546;BME280;44768;50.298;127.520;2022-07-01T03:02:40;99392.53;;;33.19;34.58
55546;BME280;44768;50.298;127.520;2022-07-01T03:07:42;99378.97;;;33.17;34.50
55546;BME280;44768;50.298;127.520;2022-07-01T03:12:46;99378.97;;;33.17;34.27
55546;BME280;44768;50.298;127.520;2022-07-01T03:17:49;99405.19;;;33.34;33.94
55546;BME280;44768;50.298;127.520;2022-07-01T03:22:51;99377.31;;;33.23;34.44
55546;BME280;44768;50.298;127.520;2022-07-01T03:27:53;99388.44;;;33.30;34.85
55546;BME280;44768;50.298;127.520;2022-07-01T03:32:54;99376.09;;;33.28;33.69
55546;BME280;44768;50.298;127.520;2022-07-01T03:37:57;99368.44;;;33.36;34.41
55546;BME280;44768;50.298;127.520;2022-07-01T03:42:59;99361.97;;;33.42;34.57
55546;BME280;44768;50.298;127.520;2022-07-01T03:48:01;99364.28;;;33.51;34.02
55546;BME280;44768;50.298;127.520;2022-07-01T03:53:06;99349.84;;;33.56;34.60
55546;BME280;44768;50.298;127.520;2022-07-01T03:58:26;99357.75;;;33.61;33.81
55546;BME280;44768;50.298;127.520;2022-07-01T04:03:28;99356.31;;;33.46;33.94
55546;BME280;44768;50.298;127.520;2022-07-01T04:08:30;99357.84;;;33.54;32.65
55546;BME280;44768;50.298;127.520;2022-07-01T04:13:31;99345.13;;;33.46;32.60
55546;BME280;44768;50.298;127.520;2022-07-01T04:18:33;99350.31;;;33.51;33.74
55546;BME280;44768;50.298;127.520;2022-07-01T04:23:35;99339.53;;;33.49;33.54
55546;BME280;44768;50.298;127.520;2022-07-01T04:28:36;99329.34;;;33.28;33.89
55546;BME280;44768;50.298;127.520;2022-07-01T04:33:38;99341.00;;;33.20;33.47
55546;BME280;44768;50.298;127.520;2022-07-01T04:38:39;99324.63;;;33.18;33.83
55546;BME280;44768;50.298;127.520;2022-07-01T04:43:41;99327.06;;;33.16;33.09
55546;BME280;44768;50.298;127.520;2022-07-01T04:48:42;99325.66;;;32.97;32.46
55546;BME280;44768;50.298;127.520;2022-07-01T04:53:44;99306.31;;;33.14;32.35
55546;BME280;44768;50.298;127.520;2022-07-01T04:58:46;99315.78;;;33.23;33.10
55546;BME280;44768;50.298;127.520;2022-07-01T05:03:49;99303.03;;;33.22;33.25
55546;BME280;44768;50.298;127.520;2022-07-01T05:08:50;99306.97;;;33.25;32.40
55546;BME280;44768;50.298;127.520;2022-07-01T05:13:52;99299.97;;;33.10;32.35
55546;BME280;44768;50.298;127.520;2022-07-01T05:18:54;99292.81;;;33.05;32.19
55546;BME280;44768;50.298;127.520;2022-07-01T05:24:14;99303.09;;;33.15;32.96
55546;BME280;44768;50.298;127.520;2022-07-01T05:29:15;99287.81;;;33.23;33.19
55546;BME280;44768;50.298;127.520;2022-07-01T05:34:17;99278.69;;;33.19;32.78
55546;BME280;44768;50.298;127.520;2022-07-01T05:39:19;99282.22;;;33.23;32.24
55546;BME280;44768;50.298;127.520;2022-07-01T05:44:21;99266.19;;;33.31;32.13
55546;BME280;44768;50.298;127.520;2022-07-01T05:49:23;99259.25;;;33.09;31.87
55546;BME280;44768;50.298;127.520;2022-07-01T05:54:24;99262.69;;;33.20;32.42
55546;BME280;44768;50.298;127.520;2022-07-01T05:59:26;99249.84;;;33.26;32.45
55546;BME280;44768;50.298;127.520;2022-07-01T06:04:28;99235.59;;;33.17;32.93
55546;BME280;44768;50.298;127.520;2022-07-01T06:09:30;99242.66;;;33.25;32.37
55546;BME280;44768;50.298;127.520;2022-07-01T06:14:32;99233.09;;;33.22;32.64
55546;BME280;44768;50.298;127.520;2022-07-01T06:19:33;99232.78;;;33.17;32.69
55546;BME280;44768;50.298;127.520;2022-07-01T06:24:35;99221.44;;;33.31;32.23
55546;BME280;44768;50.298;127.520;2022-07-01T06:29:37;99228.50;;;33.43;32.36
55546;BME280;44768;50.298;127.520;2022-07-01T06:34:38;99223.38;;;33.38;32.19
55546;BME280;44768;50.298;127.520;2022-07-01T06:39:40;99207.00;;;33.36;32.42
55546;BME280;44768;50.298;127.520;2022-07-01T06:44:41;99205.81;;;33.33;32.52
55546;BME280;44768;50.298;127.520;2022-07-01T06:49:43;99195.03;;;33.36;32.78
55546;BME280;44768;50.298;127.520;2022-07-01T06:54:44;99198.94;;;33.42;32.35
55546;BME280;44768;50.298;127.520;2022-07-01T06:59:46;99189.50;;;33.28;30.70
55546;BME280;44768;50.298;127.520;2022-07-01T07:04:50;99180.03;;;33.19;31.05
55546;BME280;44768;50.298;127.520;2022-07-01T07:09:55;99175.19;;;33.23;31.08
55546;BME280;44768;50.298;127.520;2022-07-01T07:14:57;99166.00;;;33.22;31.19
55546;BME280;44768;50.298;127.520;2022-07-01T07:19:58;99167.38;;;33.11;31.00
55546;BME280;44768;50.298;127.520;2022-07-01T07:25:00;99153.94;;;32.98;31.82
55546;BME280;44768;50.298;127.520;2022-07-01T07:30:04;99157.75;;;33.12;31.84
55546;BME280;44768;50.298;127.520;2022-07-01T07:35:06;99158.50;;;33.16;31.07
55546;BME280;44768;50.298;127.520;2022-07-01T07:40:10;99152.53;;;33.14;30.27
55546;BME280;44768;50.298;127.520;2022-07-01T07:45:14;99142.56;;;33.13;29.79
55546;BME280;44768;50.298;127.520;2022-07-01T07:50:16;99155.38;;;33.10;29.67
55546;BME280;44768;50.298;127.520;2022-07-01T07:55:17;99140.66;;;33.06;29.62
55546;BME280;44768;50.298;127.520;2022-07-01T08:00:20;99126.28;;;33.04;30.07
55546;BME280;44768;50.298;127.520;2022-07-01T08:05:22;99101.84;;;32.78;31.36
55546;BME280;44768;50.298;127.520;2022-07-01T08:10:24;99126.06;;;32.91;31.31
55546;BME280;44768;50.298;127.520;2022-07-01T08:15:25;99105.34;;;32.89;32.82
55546;BME280;44768;50.298;127.520;2022-07-01T08:20:27;99114.84;;;32.95;32.93
55546;BME280;44768;50.298;127.520;2022-07-01T08:25:29;99107.78;;;32.87;33.31
55546;BME280;44768;50.298;127.520;2022-07-01T08:30:31;99113.50;;;32.72;33.60
55546;BME280;44768;50.298;127.520;2022-07-01T08:35:33;99095.88;;;32.76;33.84
55546;BME280;44768;50.298;127.520;2022-07-01T08:40:35;99102.19;;;32.87;33.81
55546;BME280;44768;50.298;127.520;2022-07-01T08:45:37;99088.81;;;32.67;33.41
55546;BME280;44768;50.298;127.520;2022-07-01T08:50:40;99096.88;;;32.58;32.71
55546;BME280;44768;50.298;127.520;2022-07-01T08:55:42;99086.50;;;32.59;32.70
55546;BME280;44768;50.298;127.520;2022-07-01T09:01:25;99082.47;;;32.63;32.59
55546;BME280;44768;50.298;127.520;2022-07-01T09:06:28;99087.09;;;32.43;33.06
55546;BME280;44768;50.298;127.520;2022-07-01T09:11:30;99071.63;;;32.31;33.16
55546;BME280;44768;50.298;127.520;2022-07-01T09:16:39;99082.41;;;32.33;33.72
55546;BME280;44768;50.298;127.520;2022-07-01T09:21:42;99080.03;;;32.28;33.35
55546;BME280;44768;50.298;127.520;2022-07-01T09:26:56;99071.81;;;32.13;33.97
55546;BME280;44768;50.298;127.520;2022-07-01T09:31:59;99073.47;;;32.07;34.31
55546;BME280;44768;50.298;127.520;2022-07-01T09:37:02;99080.19;;;32.13;34.44
55546;BME280;44768;50.298;127.520;2022-07-01T09:42:04;99076.25;;;32.07;34.06
55546;BME280;44768;50.298;127.520;2022-07-01T09:47:07;99071.88;;;32.06;34.18
55546;BME280;44768;50.298;127.520;2022-07-01T09:52:09;99074.69;;;32.06;34.72
55546;BME280;44768;50.298;127.520;2022-07-01T09:57:10;99079.06;;;32.07;34.65
55546;BME280;44768;50.298;127.520;2022-07-01T10:02:12;99067.97;;;32.00;34.66
55546;BME280;44768;50.298;127.520;2022-07-01T10:12:55;99076.34;;;32.00;35.25
55546;BME280;44768;50.298;127.520;2022-07-01T10:17:57;99086.38;;;31.91;35.36
55546;BME280;44768;50.298;127.520;2022-07-01T10:23:06;99085.97;;;31.92;35.47
55546;BME280;44768;50.298;127.520;2022-07-01T10:33:28;99087.66;;;31.79;35.28
55546;BME280;44768;50.298;127.520;2022-07-01T10:38:30;99070.72;;;31.56;35.79
55546;BME280;44768;50.298;127.520;2022-07-01T10:43:33;99073.03;;;31.64;35.48
55546;BME280;44768;50.298;127.520;2022-07-01T10:48:35;99077.00;;;31.67;35.94
55546;BME280;44768;50.298;127.520;2022-07-01T10:53:46;99067.75;;;31.77;36.16
55546;BME280;44768;50.298;127.520;2022-07-01T10:59:01;99079.31;;;31.75;36.57
55546;BME280;44768;50.298;127.520;2022-07-01T11:04:03;99079.09;;;31.52;36.69
55546;BME280;44768;50.298;127.520;2022-07-01T11:09:06;99087.53;;;31.41;37.67
55546;BME280;44768;50.298;127.520;2022-07-01T11:14:08;99082.44;;;31.29;37.73
55546;BME280;44768;50.298;127.520;2022-07-01T11:19:09;99076.16;;;31.11;38.29
55546;BME280;44768;50.298;127.520;2022-07-01T11:24:11;99086.19;;;30.98;38.48
55546;BME280;44768;50.298;127.520;2022-07-01T11:29:13;99082.25;;;30.84;38.67
55546;BME280;44768;50.298;127.520;2022-07-01T11:34:17;99076.72;;;30.67;38.89
55546;BME280;44768;50.298;127.520;2022-07-01T11:39:20;99083.16;;;30.53;38.84
55546;BME280;44768;50.298;127.520;2022-07-01T11:44:50;99084.78;;;30.47;39.49
55546;BME280;44768;50.298;127.520;2022-07-01T11:49:52;99087.22;;;30.23;39.65
55546;BME280;44768;50.298;127.520;2022-07-01T11:54:55;99095.94;;;30.11;40.24
55546;BME280;44768;50.298;127.520;2022-07-01T12:00:09;99097.53;;;30.09;40.80
55546;BME280;44768;50.298;127.520;2022-07-01T12:05:11;99094.34;;;29.92;40.46
55546;BME280;44768;50.298;127.520;2022-07-01T12:10:15;99087.22;;;29.81;40.92
55546;BME280;44768;50.298;127.520;2022-07-01T12:15:18;99105.50;;;29.82;40.76
55546;BME280;44768;50.298;127.520;2022-07-01T12:20:33;99112.66;;;29.83;41.19
55546;BME280;44768;50.298;127.520;2022-07-01T12:25:36;99117.41;;;29.71;41.20
55546;BME280;44768;50.298;127.520;2022-07-01T12:30:38;99124.97;;;29.67;40.47
55546;BME280;44768;50.298;127.520;2022-07-01T12:35:40;99127.72;;;29.60;40.14
55546;BME280;44768;50.298;127.520;2022-07-01T12:40:44;99124.50;;;29.55;39.80
55546;BME280;44768;50.298;127.520;2022-07-01T12:45:46;99117.34;;;29.50;39.59
55546;BME280;44768;50.298;127.520;2022-07-01T12:50:47;99112.59;;;29.47;41.82
55546;BME280;44768;50.298;127.520;2022-07-01T12:55:57;99112.56;;;29.40;43.54
55546;BME280;44768;50.298;127.520;2022-07-01T13:00:59;99125.25;;;29.27;43.95
55546;BME280;44768;50.298;127.520;2022-07-01T13:06:01;99120.47;;;29.24;44.60
55546;BME280;44768;50.298;127.520;2022-07-01T13:11:03;99125.22;;;29.20;44.80
55546;BME280;44768;50.298;127.520;2022-07-01T13:16:05;99126.78;;;29.14;45.29
55546;BME280;44768;50.298;127.520;2022-07-01T13:21:06;99133.84;;;28.93;45.92
55546;BME280;44768;50.298;127.520;2022-07-01T13:26:08;99130.59;;;28.77;46.56
55546;BME280;44768;50.298;127.520;2022-07-01T13:31:11;99129.72;;;28.66;46.72
55546;BME280;44768;50.298;127.520;2022-07-01T13:36:13;99112.22;;;28.55;47.08
55546;BME280;44768;50.298;127.520;2022-07-01T13:41:17;99137.59;;;28.53;47.18
55546;BME280;44768;50.298;127.520;2022-07-01T13:46:18;99135.13;;;28.41;47.75
55546;BME280;44768;50.298;127.520;2022-07-01T13:51:20;99135.00;;;28.27;48.21
55546;BME280;44768;50.298;127.520;2022-07-01T13:56:21;99127.81;;;28.15;48.48
55546;BME280;44768;50.298;127.520;2022-07-01T14:01:23;99118.97;;;27.99;48.94
55546;BME280;44768;50.298;127.520;2022-07-01T14:06:24;99115.72;;;27.89;49.39
55546;BME280;44768;50.298;127.520;2022-07-01T14:11:26;99127.47;;;27.79;49.45
55546;BME280;44768;50.298;127.520;2022-07-01T14:16:28;99122.69;;;27.76;49.56
55546;BME280;44768;50.298;127.520;2022-07-01T14:21:31;99110.78;;;27.72;50.03
55546;BME280;44768;50.298;127.520;2022-07-01T14:26:32;99114.59;;;27.57;50.09
55546;BME280;44768;50.298;127.520;2022-07-01T14:31:34;99122.34;;;27.41;50.11
55546;BME280;44768;50.298;127.520;2022-07-01T14:36:35;99119.88;;;27.28;50.86
55546;BME280;44768;50.298;127.520;2022-07-01T14:41:37;99106.22;;;27.16;50.92
55546;BME280;44768;50.298;127.520;2022-07-01T14:46:39;99127.75;;;27.26;51.02
55546;BME280;44768;50.298;127.520;2022-07-01T14:51:40;99130.84;;;27.21;51.08
55546;BME280;44768;50.298;127.520;2022-07-01T14:56:42;99115.69;;;27.12;51.17
55546;BME280;44768;50.298;127.520;2022-07-01T15:01:43;99127.56;;;27.12;51.19
55546;BME280;44768;50.298;127.520;2022-07-01T15:06:45;99124.38;;;27.10;51.09
55546;BME280;44768;50.298;127.520;2022-07-01T15:11:48;99121.19;;;27.08;51.38
55546;BME280;44768;50.298;127.520;2022-07-01T15:16:49;99128.66;;;27.04;51.45
55546;BME280;44768;50.298;127.520;2022-07-01T15:21:51;99122.78;;;27.09;51.38
55546;BME280;44768;50.298;127.520;2022-07-01T15:26:53;99115.75;;;27.19;51.22
55546;BME280;44768;50.298;127.520;2022-07-01T15:31:55;99109.53;;;27.25;51.46
55546;BME280;44768;50.298;127.520;2022-07-01T15:36:57;99108.59;;;27.14;51.76
55546;BME280;44768;50.298;127.520;2022-07-01T15:41:59;99120.22;;;26.93;52.35
55546;BME280;44768;50.298;127.520;2022-07-01T15:47:03;99114.56;;;26.83;52.67
55546;BME280;44768;50.298;127.520;2022-07-01T15:52:23;99121.59;;;26.77;52.50
55546;BME280;44768;50.298;127.520;2022-07-01T15:57:25;99114.03;;;26.74;52.63
55546;BME280;44768;50.298;127.520;2022-07-01T16:02:26;99103.28;;;26.68;53.04
55546;BME280;44768;50.298;127.520;2022-07-01T16:07:30;99087.44;;;26.65;52.69
55546;BME280;44768;50.298;127.520;2022-07-01T16:12:37;99084.47;;;26.81;52.43
55546;BME280;44768;50.298;127.520;2022-07-01T16:17:39;99088.53;;;26.91;52.23
55546;BME280;44768;50.298;127.520;2022-07-01T16:22:46;99090.91;;;26.89;52.88
55546;BME280;44768;50.298;127.520;2022-07-01T16:27:48;99074.03;;;26.67;53.05
55546;BME280;44768;50.298;127.520;2022-07-01T16:32:51;99092.97;;;26.65;53.28
55546;BME280;44768;50.298;127.520;2022-07-01T16:37:53;99095.41;;;26.70;53.01
55546;BME280;44768;50.298;127.520;2022-07-01T16:42:56;99097.13;;;26.79;52.46
55546;BME280;44768;50.298;127.520;2022-07-01T16:47:58;99085.97;;;26.75;52.88
55546;BME280;44768;50.298;127.520;2022-07-01T16:53:06;99085.13;;;26.71;53.21
55546;BME280;44768;50.298;127.520;2022-07-01T16:58:20;99092.91;;;26.62;53.34
55546;BME280;44768;50.298;127.520;2022-07-01T17:03:23;99103.19;;;26.61;53.45
55546;BME280;44768;50.298;127.520;2022-07-01T17:08:24;99096.59;;;26.69;53.35
55546;BME280;44768;50.298;127.520;2022-07-01T17:13:28;99101.56;;;26.87;53.34
55546;BME280;44768;50.298;127.520;2022-07-01T17:18:30;99083.38;;;26.89;53.16
55546;BME280;44768;50.298;127.520;2022-07-01T17:23:57;99089.47;;;27.02;53.16
55546;BME280;44768;50.298;127.520;2022-07-01T17:29:09;99088.44;;;26.80;53.35
55546;BME280;44768;50.298;127.520;2022-07-01T17:34:13;99077.31;;;26.77;53.46
55546;BME280;44768;50.298;127.520;2022-07-01T17:39:16;99064.59;;;26.72;53.52
55546;BME280;44768;50.298;127.520;2022-07-01T17:44:20;99073.19;;;26.63;54.16
55546;BME280;44768;50.298;127.520;2022-07-01T17:49:27;99074.78;;;26.64;54.19
55546;BME280;44768;50.298;127.520;2022-07-01T17:54:29;99064.78;;;26.56;54.30
55546;BME280;44768;50.298;127.520;2022-07-01T17:59:31;99073.06;;;26.56;54.34
55546;BME280;44768;50.298;127.520;2022-07-01T18:04:34;99081.00;;;26.58;54.31
55546;BME280;44768;50.298;127.520;2022-07-01T18:09:36;99072.97;;;26.49;54.94
55546;BME280;44768;50.298;127.520;2022-07-01T18:15:07;99074.50;;;26.47;54.77
55546;BME280;44768;50.298;127.520;2022-07-01T18:25:24;99062.56;;;26.39;55.23
55546;BME280;44768;50.298;127.520;2022-07-01T18:30:37;99046.28;;;26.07;55.69
55546;BME280;44768;50.298;127.520;2022-07-01T18:35:40;99060.53;;;26.09;55.90
55546;BME280;44768;50.298;127.520;2022-07-01T18:40:42;99049.25;;;25.95;55.93
55546;BME280;44768;50.298;127.520;2022-07-01T18:45:43;99033.84;;;25.68;56.59
55546;BME280;44768;50.298;127.520;2022-07-01T18:50:45;99056.06;;;25.75;56.54
55546;BME280;44768;50.298;127.520;2022-07-01T18:55:47;99047.38;;;25.76;56.50
55546;BME280;44768;50.298;127.520;2022-07-01T19:00:48;99049.78;;;25.78;56.30
55546;BME280;44768;50.298;127.520;2022-07-01T19:05:50;99036.16;;;25.66;56.67
55546;BME280;44768;50.298;127.520;2022-07-01T19:10:51;99045.56;;;25.61;57.21
55546;BME280;44768;50.298;127.520;2022-07-01T19:15:54;99052.00;;;25.69;57.37
55546;BME280;44768;50.298;127.520;2022-07-01T19:20:56;99037.63;;;25.60;57.04
55546;BME280;44768;50.298;127.520;2022-07-01T19:25:57;99048.00;;;25.66;57.11
55546;BME280;44768;50.298;127.520;2022-07-01T19:30:59;99049.25;;;25.69;57.25
55546;BME280;44768;50.298;127.520;2022-07-01T19:36:00;99046.28;;;25.81;57.09
55546;BME280;44768;50.298;127.520;2022-07-01T19:41:02;99049.47;;;25.83;57.29
55546;BME280;44768;50.298;127.520;2022-07-01T19:46:04;99045.84;;;25.79;57.53
55546;BME280;44768;50.298;127.520;2022-07-01T19:51:06;99038.78;;;25.82;57.34
55546;BME280;44768;50.298;127.520;2022-07-01T19:56:07;99042.44;;;25.89;57.60
55546;BME280;44768;50.298;127.520;2022-07-01T20:01:09;99042.88;;;25.91;57.38
55546;BME280;44768;50.298;127.520;2022-07-01T20:06:10;99048.75;;;26.13;56.96
55546;BME280;44768;50.298;127.520;2022-07-01T20:11:12;99040.38;;;26.35;56.25
55546;BME280;44768;50.298;127.520;2022-07-01T20:16:15;99056.56;;;26.63;55.41
55546;BME280;44768;50.298;127.520;2022-07-01T20:21:16;99056.38;;;27.16;54.36
55546;BME280;44768;50.298;127.520;2022-07-01T20:26:18;99049.25;;;27.56;53.21
55546;BME280;44768;50.298;127.520;2022-07-01T20:31:19;99045.19;;;27.87;52.60
55546;BME280;44768;50.298;127.520;2022-07-01T20:36:21;99050.50;;;28.10;51.65
55546;BME280;44768;50.298;127.520;2022-07-01T20:41:22;99043.00;;;28.21;50.99
55546;BME280;44768;50.298;127.520;2022-07-01T20:46:24;99054.28;;;28.49;50.96
55546;BME280;44768;50.298;127.520;2022-07-01T20:51:26;99024.28;;;28.84;49.52
55546;BME280;44768;50.298;127.520;2022-07-01T20:56:27;99051.44;;;29.44;48.17
55546;BME280;44768;50.298;127.520;2022-07-01T21:01:29;99045.88;;;29.44;47.96
55546;BME280;44768;50.298;127.520;2022-07-01T21:06:30;99044.28;;;29.46;48.35
55546;BME280;44768;50.298;127.520;2022-07-01T21:11:32;99008.53;;;29.45;47.69
55546;BME280;44768;50.298;127.520;2022-07-01T21:16:34;99023.63;;;29.79;47.34
55546;BME280;44768;50.298;127.520;2022-07-01T21:21:36;99027.19;;;30.05;46.58
55546;BME280;44768;50.298;127.520;2022-07-01T21:26:37;99031.53;;;30.09;47.13
55546;BME280;44768;50.298;127.520;2022-07-01T21:31:39;98999.72;;;30.28;46.27
55546;BME280;44768;50.298;127.520;2022-07-01T21:36:40;99017.03;;;30.71;45.61
55546;BME280;44768;50.298;127.520;2022-07-01T21:41:42;99024.81;;;31.05;44.97
55546;BME280;44768;50.298;127.520;2022-07-01T21:46:47;99019.31;;;31.57;43.71
55546;BME280;44768;50.298;127.520;2022-07-01T21:51:51;99027.09;;;32.17;42.82
55546;BME280;44768;50.298;127.520;2022-07-01T21:56:55;99025.94;;;32.15;42.36
55546;BME280;44768;50.298;127.520;2022-07-01T22:01:58;99033.34;;;32.66;41.47
55546;BME280;44768;50.298;127.520;2022-07-01T22:07:02;99027.34;;;32.67;41.00
55546;BME280;44768;50.298;127.520;2022-07-01T22:12:08;99035.38;;;33.23;40.60
55546;BME280;44768;50.298;127.520;2022-07-01T22:17:14;99030.47;;;35.03;37.16
55546;BME280;44768;50.298;127.520;2022-07-01T22:22:23;99023.69;;;35.69;35.90
55546;BME280;44768;50.298;127.520;2022-07-01T22:27:26;99010.41;;;37.88;32.60
55546;BME280;44768;50.298;127.520;2022-07-01T22:32:30;99004.47;;;41.33;27.23
55546;BME280;44768;50.298;127.520;2022-07-01T22:37:32;99003.09;;;43.88;23.52
55546;BME280;44768;50.298;127.520;2022-07-01T22:42:34;99006.25;;;43.20;24.20
55546;BME280;44768;50.298;127.520;2022-07-01T22:47:42;98999.66;;;42.94;24.69
55546;BME280;44768;50.298;127.520;2022-07-01T22:58:23;98998.38;;;44.78;21.76
55546;BME280;44768;50.298;127.520;2022-07-01T23:03:27;98991.25;;;44.36;21.90
55546;BME280;44768;50.298;127.520;2022-07-01T23:08:44;98988.53;;;44.53;21.17
55546;BME280;44768;50.298;127.520;2022-07-01T23:14:49;99004.72;;;44.41;21.28
55546;BME280;44768;50.298;127.520;2022-07-01T23:19:40;98999.47;;;44.86;20.80
55546;BME280;44768;50.298;127.520;2022-07-01T23:24:42;98997.91;;;44.85;21.22
55546;BME280;44768;50.298;127.520;2022-07-01T23:29:49;98993.66;;;44.75;21.02
55546;BME280;44768;50.298;127.520;2022-07-01T23:34:52;98994.44;;;44.23;21.40
55546;BME280;44768;50.298;127.520;2022-07-01T23:39:55;98989.75;;;43.94;21.98
55546;BME280;44768;50.298;127.520;2022-07-01T23:44:58;98990.72;;;43.51;22.78
55546;BME280;44768;50.298;127.520;2022-07-01T23:50:01;98984.50;;;42.82;23.16
55546;BME280;44768;50.298;127.520;2022-07-01T23:55:05;98959.38;;;42.30;23.96
